createdAt,value
2018-09-04T00:00:08.296Z,23.47
2018-09-04T00:02:37.390Z,23.44
2018-09-04T00:05:06.476Z,23.43
2018-09-04T00:07:35.669Z,23.41
2018-09-04T00:10:05.356Z,23.41
2018-09-04T00:12:34.575Z,23.38
2018-09-04T00:15:03.809Z,23.42
2018-09-04T00:17:35.852Z,23.43
2018-09-04T00:20:05.334Z,23.45
2018-09-04T00:22:34.465Z,23.44
2018-09-04T00:25:03.650Z,23.44
2018-09-04T00:27:32.773Z,23.43
2018-09-04T00:30:01.832Z,23.45
2018-09-04T00:32:31.044Z,23.46
2018-09-04T00:35:00.192Z,23.45
2018-09-04T00:37:29.446Z,23.46
2018-09-04T00:39:58.891Z,23.45
2018-09-04T00:42:28.120Z,23.45
2018-09-04T00:44:57.225Z,23.45
2018-09-04T00:47:26.378Z,23.46
2018-09-04T00:49:55.471Z,23.46
2018-09-04T00:52:24.691Z,23.46
2018-09-04T00:54:53.805Z,23.45
2018-09-04T00:57:22.936Z,23.44
2018-09-04T00:59:52.046Z,23.43
2018-09-04T01:02:21.195Z,23.39
2018-09-04T01:04:50.313Z,23.39
2018-09-04T01:07:20.573Z,23.38
2018-09-04T01:09:50.903Z,23.38
2018-09-04T01:12:20.123Z,23.38
2018-09-04T01:14:49.368Z,23.34
2018-09-04T01:17:18.560Z,23.31
2018-09-04T01:19:47.706Z,23.30
2018-09-04T01:22:16.925Z,23.29
2018-09-04T01:24:46.135Z,23.30
2018-09-04T01:27:15.330Z,23.32
2018-09-04T01:29:44.520Z,23.30
2018-09-04T01:32:13.732Z,23.30
2018-09-04T01:34:42.973Z,23.29
2018-09-04T01:37:12.196Z,23.30
2018-09-04T01:39:41.495Z,23.29
2018-09-04T01:42:11.115Z,23.31
2018-09-04T01:44:40.287Z,23.32
2018-09-04T01:47:09.432Z,23.33
2018-09-04T01:49:39.093Z,23.32
2018-09-04T01:52:08.235Z,23.30
2018-09-04T01:54:37.893Z,23.28
2018-09-04T01:57:07.093Z,23.27
2018-09-04T01:59:36.182Z,23.25
2018-09-04T02:02:05.508Z,23.26
2018-09-04T02:04:34.652Z,23.25
2018-09-04T02:07:03.792Z,23.24
2018-09-04T02:09:32.887Z,23.21
2018-09-04T02:12:01.998Z,23.17
2018-09-04T02:14:31.236Z,23.15
2018-09-04T02:17:00.434Z,23.12
2018-09-04T02:19:29.599Z,23.10
2018-09-04T02:21:58.715Z,23.06
2018-09-04T02:24:27.804Z,23.03
2018-09-04T02:26:56.989Z,22.99
2018-09-04T02:29:26.061Z,22.95
2018-09-04T02:31:55.161Z,22.91
2018-09-04T02:34:24.436Z,22.82
2018-09-04T02:36:53.665Z,22.79
2018-09-04T02:39:22.810Z,22.75
2018-09-04T02:41:51.928Z,22.72
2018-09-04T02:44:21.209Z,22.69
2018-09-04T02:46:50.281Z,22.63
2018-09-04T02:49:19.440Z,22.58
2018-09-04T02:51:48.546Z,22.54
2018-09-04T02:54:17.697Z,22.51
2018-09-04T02:56:46.890Z,22.47
2018-09-04T02:59:16.124Z,22.43
2018-09-04T03:01:45.413Z,22.40
2018-09-04T03:04:14.666Z,22.36
2018-09-04T03:06:44.015Z,22.33
2018-09-04T03:09:13.549Z,22.30
2018-09-04T03:11:42.844Z,22.27
2018-09-04T03:14:12.049Z,22.26
2018-09-04T03:16:41.268Z,22.26
2018-09-04T03:19:10.348Z,22.28
2018-09-04T03:21:39.559Z,22.30
2018-09-04T03:24:08.749Z,22.29
2018-09-04T03:26:37.962Z,22.30
2018-09-04T03:29:07.282Z,22.29
2018-09-04T03:31:36.449Z,22.28
2018-09-04T03:34:05.714Z,22.26
2018-09-04T03:36:34.880Z,22.23
2018-09-04T03:39:04.757Z,22.19
2018-09-04T03:41:33.864Z,22.14
2018-09-04T03:44:02.936Z,22.08
2018-09-04T03:46:32.079Z,22.04
2018-09-04T03:49:01.149Z,22.01
2018-09-04T03:51:30.306Z,21.97
2018-09-04T03:53:59.398Z,21.95
2018-09-04T03:56:28.459Z,21.92
2018-09-04T03:58:57.558Z,21.90
2018-09-04T04:01:26.658Z,21.86
2018-09-04T04:03:55.768Z,21.85
2018-09-04T04:06:25.201Z,21.82
2018-09-04T04:08:54.288Z,21.81
2018-09-04T04:11:23.372Z,21.78
2018-09-04T04:13:52.612Z,21.77
2018-09-04T04:16:21.713Z,21.76
2018-09-04T04:18:50.915Z,21.75
2018-09-04T04:21:21.236Z,21.75
2018-09-04T04:23:50.422Z,21.75
2018-09-04T04:26:19.565Z,21.75
2018-09-04T04:28:48.792Z,21.74
2018-09-04T04:31:18.005Z,21.72
2018-09-04T04:33:47.538Z,21.73
2018-09-04T04:36:18.031Z,21.70
2018-09-04T04:38:47.465Z,21.71
2018-09-04T04:41:17.046Z,21.72
2018-09-04T04:43:46.880Z,21.72
2018-09-04T04:46:16.198Z,21.70
2018-09-04T04:48:45.536Z,21.70
2018-09-04T04:51:15.355Z,21.71
2018-09-04T04:53:44.717Z,21.73
2018-09-04T04:56:14.026Z,21.74
2018-09-04T04:58:43.517Z,21.75
2018-09-04T05:01:12.938Z,21.72
2018-09-04T05:03:42.219Z,21.70
2018-09-04T05:06:11.516Z,21.69
2018-09-04T05:08:40.856Z,21.66
2018-09-04T05:11:10.153Z,21.65
2018-09-04T05:13:39.255Z,21.63
2018-09-04T05:16:08.821Z,21.62
2018-09-04T05:18:38.243Z,21.62
2018-09-04T05:21:07.429Z,21.63
2018-09-04T05:23:36.765Z,21.62
2018-09-04T05:26:05.903Z,21.60
2018-09-04T05:28:35.033Z,21.59
2018-09-04T05:31:04.177Z,21.57
2018-09-04T05:33:40.346Z,21.60
2018-09-04T05:36:10.899Z,21.60
2018-09-04T05:38:40.337Z,21.55
2018-09-04T05:41:10.314Z,21.54
2018-09-04T05:43:48.484Z,21.54
2018-09-04T05:46:52.444Z,21.51
2018-09-04T05:49:25.369Z,21.47
2018-09-04T05:51:54.441Z,21.46
2018-09-04T05:54:23.541Z,21.49
2018-09-04T05:56:52.909Z,21.53
2018-09-04T05:59:22.025Z,21.56
2018-09-04T06:01:51.103Z,21.60
2018-09-04T06:04:20.257Z,21.63
2018-09-04T06:06:49.373Z,21.68
2018-09-04T06:09:18.630Z,21.73
2018-09-04T06:11:47.819Z,21.82
2018-09-04T06:14:17.137Z,21.95
2018-09-04T06:16:46.277Z,22.14
2018-09-04T06:19:15.531Z,22.36
2018-09-04T06:21:44.741Z,22.57
2018-09-04T06:24:14.275Z,22.80
2018-09-04T06:26:44.359Z,23.04
2018-09-04T06:29:13.764Z,23.35
2018-09-04T06:31:43.212Z,23.70
2018-09-04T06:34:12.712Z,24.08
2018-09-04T06:36:42.432Z,24.37
2018-09-04T06:39:11.965Z,24.71
2018-09-04T06:41:41.233Z,25.07
2018-09-04T06:44:10.726Z,25.44
2018-09-04T06:46:40.269Z,25.83
2018-09-04T06:49:09.426Z,26.22
2018-09-04T06:51:38.701Z,26.64
2018-09-04T06:54:07.751Z,27.01
2018-09-04T06:56:36.961Z,27.43
2018-09-04T06:59:06.493Z,27.85
2018-09-04T07:01:35.592Z,28.29
2018-09-04T07:04:04.733Z,28.72
2018-09-04T07:06:34.207Z,29.15
2018-09-04T07:09:04.006Z,29.49
2018-09-04T07:11:33.181Z,29.74
2018-09-04T07:14:02.261Z,29.86
2018-09-04T07:16:31.380Z,29.98
2018-09-04T07:19:00.489Z,30.14
2018-09-04T07:21:30.616Z,30.23
2018-09-04T07:23:59.713Z,30.14
2018-09-04T07:26:28.929Z,30.03
2018-09-04T07:28:58.094Z,29.90
2018-09-04T07:31:27.246Z,29.70
2018-09-04T07:33:56.413Z,29.47
2018-09-04T07:36:25.532Z,29.28
2018-09-04T07:38:54.684Z,29.07
2018-09-04T07:41:23.941Z,28.82
2018-09-04T07:43:53.298Z,28.59
2018-09-04T07:46:22.487Z,28.35
2018-09-04T07:48:51.540Z,28.12
2018-09-04T07:51:20.748Z,27.93
2018-09-04T07:53:49.925Z,27.80
2018-09-04T07:56:19.089Z,27.74
2018-09-04T07:58:48.417Z,27.71
2018-09-04T08:01:17.574Z,27.75
2018-09-04T08:03:46.955Z,27.84
2018-09-04T08:06:16.215Z,27.91
2018-09-04T08:08:45.497Z,28.00
2018-09-04T08:11:14.914Z,28.04
2018-09-04T08:13:44.380Z,27.96
2018-09-04T08:16:13.860Z,27.77
2018-09-04T08:18:43.025Z,27.59
2018-09-04T08:21:12.796Z,27.49
2018-09-04T08:23:42.025Z,27.44
2018-09-04T08:26:11.285Z,27.49
2018-09-04T08:28:42.340Z,27.62
2018-09-04T08:31:11.979Z,27.73
2018-09-04T08:33:43.217Z,27.85
2018-09-04T08:36:12.773Z,28.01
2018-09-04T08:38:47.392Z,28.08
2018-09-04T08:41:16.859Z,28.13
2018-09-04T08:43:47.154Z,28.16
2018-09-04T08:46:17.580Z,28.21
2018-09-04T08:48:53.120Z,28.27
2018-09-04T08:51:23.876Z,28.28
2018-09-04T08:53:54.918Z,28.19
2018-09-04T08:56:25.060Z,28.11
2018-09-04T08:58:55.204Z,28.11
2018-09-04T09:01:25.869Z,28.16
2018-09-04T09:03:57.606Z,28.29
2018-09-04T09:06:27.438Z,28.41
2018-09-04T09:08:56.939Z,28.42
2018-09-04T09:11:26.636Z,28.45
2018-09-04T09:13:55.723Z,28.49
2018-09-04T09:16:25.651Z,28.48
2018-09-04T09:18:55.270Z,28.50
2018-09-04T09:21:24.856Z,28.38
2018-09-04T09:23:54.427Z,28.14
2018-09-04T09:26:24.136Z,27.81
2018-09-04T09:28:55.278Z,27.62
2018-09-04T09:31:25.152Z,27.59
2018-09-04T09:33:55.369Z,27.61
2018-09-04T09:36:25.440Z,27.60
2018-09-04T09:38:55.095Z,27.64
2018-09-04T09:41:27.629Z,27.76
2018-09-04T09:43:57.007Z,27.94
2018-09-04T09:46:26.033Z,28.04
2018-09-04T09:48:56.137Z,28.08
2018-09-04T09:51:26.073Z,28.20
2018-09-04T09:53:55.978Z,28.54
2018-09-04T09:56:26.130Z,28.94
2018-09-04T09:58:56.805Z,29.32
2018-09-04T10:01:33.702Z,29.65
2018-09-04T10:04:04.962Z,30.08
2018-09-04T10:06:34.914Z,30.58
2018-09-04T10:09:08.210Z,30.82
2018-09-04T10:11:38.344Z,30.80
2018-09-04T10:14:07.823Z,30.84
2018-09-04T10:16:37.136Z,31.04
2018-09-04T10:19:06.909Z,31.25
2018-09-04T10:21:37.420Z,31.30
2018-09-04T10:24:06.850Z,31.30
2018-09-04T10:26:36.413Z,31.41
2018-09-04T10:29:06.536Z,31.62
2018-09-04T10:31:37.265Z,31.70
2018-09-04T10:34:06.875Z,31.72
2018-09-04T10:36:36.774Z,31.68
2018-09-04T10:39:14.299Z,31.56
2018-09-04T10:41:45.239Z,31.48
2018-09-04T10:44:14.460Z,31.42
2018-09-04T10:46:43.606Z,31.39
2018-09-04T10:49:14.536Z,31.31
2018-09-04T10:51:43.660Z,31.28
2018-09-04T10:54:14.497Z,31.30
2018-09-04T10:56:47.652Z,31.35
2018-09-04T10:59:17.345Z,31.42
2018-09-04T11:01:47.132Z,31.71
2018-09-04T11:04:18.966Z,32.08
2018-09-04T11:06:49.134Z,32.60
2018-09-04T11:09:18.922Z,33.13
2018-09-04T11:11:49.131Z,33.64
2018-09-04T11:14:19.129Z,33.96
2018-09-04T11:16:51.641Z,33.95
2018-09-04T11:19:21.265Z,33.90
2018-09-04T11:21:51.102Z,33.83
2018-09-04T11:24:20.824Z,33.75
2018-09-04T11:26:51.005Z,33.86
2018-09-04T11:29:22.244Z,33.91
2018-09-04T11:31:51.273Z,33.73
2018-09-04T11:34:25.204Z,33.44
2018-09-04T11:36:58.401Z,33.20
2018-09-04T11:39:28.625Z,33.07
2018-09-04T11:42:01.232Z,33.14
2018-09-04T11:44:31.028Z,33.29
2018-09-04T11:47:01.650Z,33.38
2018-09-04T11:49:31.937Z,33.42
2018-09-04T11:52:02.205Z,33.29
2018-09-04T11:54:32.820Z,33.09
2018-09-04T11:57:01.943Z,33.00
2018-09-04T11:59:35.255Z,33.03
2018-09-04T12:02:05.200Z,33.06
2018-09-04T12:04:35.008Z,33.17
2018-09-04T12:07:04.551Z,33.32
2018-09-04T12:09:33.880Z,33.33
2018-09-04T12:12:03.485Z,33.24
2018-09-04T12:14:38.477Z,33.15
2018-09-04T12:17:09.562Z,32.95
2018-09-04T12:20:12.438Z,32.74
2018-09-04T12:22:43.663Z,32.45
2018-09-04T12:25:13.557Z,32.18
2018-09-04T12:27:44.705Z,31.94
2018-09-04T12:30:15.323Z,31.68
2018-09-04T12:32:45.404Z,31.47
2018-09-04T12:35:15.789Z,31.32
2018-09-04T12:37:46.726Z,31.36
2018-09-04T12:40:16.969Z,31.49
2018-09-04T12:42:46.892Z,31.52
2018-09-04T12:45:15.920Z,31.52
2018-09-04T12:47:45.072Z,31.44
2018-09-04T12:50:15.065Z,31.29
2018-09-04T12:52:44.617Z,31.14
2018-09-04T12:55:14.381Z,31.03
2018-09-04T12:57:43.620Z,31.05
2018-09-04T13:00:15.156Z,31.03
2018-09-04T13:02:45.552Z,30.94
2018-09-04T13:05:15.930Z,30.88
2018-09-04T13:07:45.812Z,30.83
2018-09-04T13:10:16.109Z,30.77
2018-09-04T13:12:45.297Z,30.73
2018-09-04T13:15:15.727Z,30.73
2018-09-04T13:17:46.364Z,30.68
2018-09-04T13:20:18.145Z,30.63
2018-09-04T13:22:48.094Z,30.60
2018-09-04T13:25:18.914Z,30.60
2018-09-04T13:27:49.224Z,30.57
2018-09-04T13:30:19.587Z,30.57
2018-09-04T13:32:51.065Z,30.62
2018-09-04T13:35:20.750Z,30.67
2018-09-04T13:37:51.218Z,30.75
2018-09-04T13:40:21.576Z,30.80
2018-09-04T13:42:51.747Z,30.83
2018-09-04T13:45:21.878Z,30.86
2018-09-04T13:47:51.683Z,30.82
2018-09-04T13:50:21.669Z,30.74
2018-09-04T13:52:52.402Z,30.67
2018-09-04T13:55:22.511Z,30.61
2018-09-04T13:57:51.533Z,30.60
2018-09-04T14:00:21.802Z,30.60
2018-09-04T14:02:51.572Z,30.67
2018-09-04T14:05:21.698Z,30.79
2018-09-04T14:07:52.610Z,30.93
2018-09-04T14:10:22.046Z,31.05
2018-09-04T14:12:52.030Z,31.13
2018-09-04T14:15:21.674Z,31.25
2018-09-04T14:17:51.329Z,31.32
2018-09-04T14:20:20.519Z,31.37
2018-09-04T14:22:50.396Z,31.41
2018-09-04T14:25:20.604Z,31.42
2018-09-04T14:27:50.121Z,31.32
2018-09-04T14:30:19.902Z,31.17
2018-09-04T14:32:50.113Z,31.00
2018-09-04T14:35:21.965Z,30.86
2018-09-04T14:37:51.633Z,30.75
2018-09-04T14:40:21.250Z,30.73
2018-09-04T14:42:50.973Z,30.68
2018-09-04T14:45:20.825Z,30.67
2018-09-04T14:47:51.730Z,30.71
2018-09-04T14:50:22.298Z,30.75
2018-09-04T14:52:52.422Z,30.80
2018-09-04T14:55:22.226Z,30.83
2018-09-04T14:57:52.576Z,30.83
2018-09-04T15:00:22.630Z,30.78
2018-09-04T15:02:52.139Z,30.78
2018-09-04T15:05:21.680Z,30.76
2018-09-04T15:07:53.533Z,30.74
2018-09-04T15:10:22.859Z,30.68
2018-09-04T15:12:52.454Z,30.66
2018-09-04T15:15:22.120Z,30.60
2018-09-04T15:17:52.519Z,30.55
2018-09-04T15:20:23.119Z,30.53
2018-09-04T15:22:52.811Z,30.51
2018-09-04T15:25:22.769Z,30.52
2018-09-04T15:27:51.912Z,30.51
2018-09-04T15:30:22.704Z,30.44
2018-09-04T15:32:53.812Z,30.38
2018-09-04T15:35:26.234Z,30.35
2018-09-04T15:37:56.205Z,30.32
2018-09-04T15:40:26.091Z,30.29
2018-09-04T15:42:58.147Z,30.34
2018-09-04T15:45:28.057Z,30.36
2018-09-04T15:47:58.693Z,30.39
2018-09-04T15:50:28.608Z,30.41
2018-09-04T15:52:59.583Z,30.48
2018-09-04T15:55:30.184Z,30.54
2018-09-04T15:58:00.796Z,30.57
2018-09-04T16:00:32.039Z,30.59
2018-09-04T16:03:03.297Z,30.60
2018-09-04T16:05:33.733Z,30.63
2018-09-04T16:08:03.827Z,30.60
2018-09-04T16:10:34.549Z,30.56
2018-09-04T16:13:04.854Z,30.49
2018-09-04T16:15:37.041Z,30.42
2018-09-04T16:18:07.809Z,30.33
2018-09-04T16:20:38.261Z,30.24
2018-09-04T16:23:08.083Z,30.18
2018-09-04T16:25:37.579Z,30.13
2018-09-04T16:28:09.061Z,30.10
2018-09-04T16:30:39.058Z,30.05
2018-09-04T16:33:09.211Z,30.01
2018-09-04T16:35:43.561Z,29.95
2018-09-04T16:38:14.515Z,29.87
2018-09-04T16:40:45.331Z,29.80
2018-09-04T16:43:17.195Z,29.71
2018-09-04T16:45:46.533Z,29.61
2018-09-04T16:48:17.722Z,29.55
2018-09-04T16:50:47.240Z,29.49
2018-09-04T16:53:16.891Z,29.41
2018-09-04T16:55:46.191Z,29.32
2018-09-04T16:58:17.273Z,29.24
2018-09-04T17:00:47.213Z,29.17
2018-09-04T17:03:16.810Z,29.07
2018-09-04T17:05:47.748Z,28.97
2018-09-04T17:08:17.448Z,28.78
2018-09-04T17:10:47.375Z,28.54
2018-09-04T17:13:16.892Z,28.27
2018-09-04T17:15:47.359Z,28.05
2018-09-04T17:18:16.784Z,27.85
2018-09-04T17:20:46.475Z,27.71
2018-09-04T17:23:16.307Z,27.57
2018-09-04T17:25:45.662Z,27.45
2018-09-04T17:28:16.892Z,27.34
2018-09-04T17:30:46.797Z,27.23
2018-09-04T17:33:17.569Z,27.12
2018-09-04T17:35:47.394Z,27.05
2018-09-04T17:38:20.962Z,26.97
2018-09-04T17:40:51.209Z,26.92
2018-09-04T17:43:21.378Z,26.87
2018-09-04T17:45:52.910Z,26.83
2018-09-04T17:48:22.752Z,26.78
2018-09-04T17:50:52.821Z,26.75
2018-09-04T17:53:22.832Z,26.71
2018-09-04T17:55:52.144Z,26.67
2018-09-04T17:58:21.228Z,26.62
2018-09-04T18:00:50.869Z,26.56
2018-09-04T18:03:19.880Z,26.52
2018-09-04T18:05:49.658Z,26.48
2018-09-04T18:08:20.549Z,26.45
2018-09-04T18:10:50.679Z,26.43
2018-09-04T18:13:20.475Z,26.40
2018-09-04T18:15:53.313Z,26.38
2018-09-04T18:18:24.336Z,26.33
2018-09-04T18:20:57.078Z,26.32
2018-09-04T18:23:27.545Z,26.26
2018-09-04T18:25:56.940Z,26.22
2018-09-04T18:28:27.008Z,26.18
2018-09-04T18:30:57.500Z,26.16
2018-09-04T18:33:27.681Z,26.10
2018-09-04T18:35:57.837Z,26.07
2018-09-04T18:38:29.315Z,26.04
2018-09-04T18:40:59.905Z,26.01
2018-09-04T18:43:30.714Z,26.00
2018-09-04T18:46:00.829Z,25.99
2018-09-04T18:48:30.865Z,25.95
2018-09-04T18:51:01.733Z,25.94
2018-09-04T18:53:34.383Z,25.93
2018-09-04T18:56:06.392Z,25.90
2018-09-04T18:58:39.459Z,26.31
2018-09-04T19:01:11.919Z,26.21
2018-09-04T19:03:43.117Z,26.13
2018-09-04T19:06:15.670Z,26.09
2018-09-04T19:08:46.571Z,26.08
2018-09-04T19:11:16.657Z,26.06
2018-09-04T19:13:48.983Z,26.01
2018-09-04T19:16:19.345Z,25.96
2018-09-04T19:18:49.541Z,25.94
2018-09-04T19:21:20.848Z,25.91
2018-09-04T19:23:51.195Z,25.90
2018-09-04T19:26:21.453Z,25.88
2018-09-04T19:28:52.240Z,25.89
2018-09-04T19:31:21.979Z,25.90
2018-09-04T19:33:52.000Z,25.88
2018-09-04T19:36:21.865Z,25.86
2018-09-04T19:38:51.554Z,25.86
2018-09-04T19:41:20.566Z,25.85
2018-09-04T19:43:52.461Z,25.82
2018-09-04T19:46:22.522Z,25.77
2018-09-04T19:48:59.153Z,25.73
2018-09-04T19:51:29.217Z,25.67
2018-09-04T19:53:58.618Z,25.64
2018-09-04T19:56:28.098Z,25.61
2018-09-04T19:58:58.620Z,25.59
2018-09-04T20:01:28.688Z,25.55
2018-09-04T20:04:00.082Z,25.52
2018-09-04T20:06:29.168Z,25.47
2018-09-04T20:08:58.502Z,25.43
2018-09-04T20:11:28.483Z,25.40
2018-09-04T20:13:58.346Z,25.36
2018-09-04T20:16:27.781Z,25.32
2018-09-04T20:18:57.420Z,25.27
2018-09-04T20:21:27.408Z,25.23
2018-09-04T20:23:57.031Z,25.17
2018-09-04T20:26:26.811Z,25.13
2018-09-04T20:28:56.355Z,25.06
2018-09-04T20:31:28.764Z,25.04
2018-09-04T20:34:00.744Z,24.99
2018-09-04T20:36:31.020Z,24.93
2018-09-04T20:39:00.626Z,24.91
2018-09-04T20:41:32.526Z,24.87
2018-09-04T20:44:02.509Z,24.83
2018-09-04T20:46:32.552Z,24.80
2018-09-04T20:49:06.972Z,24.74
2018-09-04T20:51:36.590Z,24.67
2018-09-04T20:54:06.612Z,24.65
2018-09-04T20:56:35.798Z,24.62
2018-09-04T20:59:24.163Z,24.61
2018-09-04T21:02:11.735Z,24.56
2018-09-04T21:04:58.376Z,24.55
2018-09-04T21:07:57.824Z,24.52
2018-09-04T21:10:27.309Z,24.49
2018-09-04T21:12:57.427Z,24.52
2018-09-04T21:15:27.875Z,24.55
2018-09-04T21:17:59.314Z,24.57
2018-09-04T21:20:28.616Z,24.60
2018-09-04T21:23:31.672Z,24.76
2018-09-04T21:26:01.708Z,24.74
2018-09-04T21:28:31.460Z,24.69
2018-09-04T21:31:03.153Z,24.68
2018-09-04T21:33:32.741Z,24.68
2018-09-04T21:36:02.554Z,24.64
2018-09-04T21:38:32.842Z,24.62
2018-09-04T21:41:04.119Z,24.60
2018-09-04T21:43:34.066Z,24.59
2018-09-04T21:46:04.433Z,24.57
2018-09-04T21:48:34.014Z,24.55
2018-09-04T21:51:03.424Z,24.57
2018-09-04T21:53:32.886Z,24.58
2018-09-04T21:56:02.270Z,24.58
2018-09-04T21:58:32.474Z,24.58
2018-09-04T22:01:01.594Z,24.58
2018-09-04T22:03:31.275Z,24.58
2018-09-04T22:06:02.243Z,24.55
2018-09-04T22:08:31.714Z,24.52
2018-09-04T22:11:00.736Z,24.51
2018-09-04T22:13:32.512Z,24.49
2018-09-04T22:16:02.448Z,24.47
2018-09-04T22:18:32.262Z,24.44
2018-09-04T22:21:02.446Z,24.44
2018-09-04T22:23:31.468Z,24.42
2018-09-04T22:26:03.116Z,24.39
2018-09-04T22:28:32.884Z,24.35
2018-09-04T22:31:02.246Z,24.33
2018-09-04T22:33:32.783Z,24.32
2018-09-04T22:36:02.463Z,24.31
2018-09-04T22:38:31.541Z,24.31
2018-09-04T22:41:00.970Z,24.30
2018-09-04T22:43:30.402Z,24.28
2018-09-04T22:46:00.166Z,24.26
2018-09-04T22:48:29.248Z,24.24
2018-09-04T22:51:04.048Z,24.19
2018-09-04T22:53:33.803Z,24.15
2018-09-04T22:56:03.093Z,24.11
2018-09-04T22:58:32.501Z,24.11
2018-09-04T23:01:02.393Z,24.11
2018-09-04T23:03:31.629Z,24.08
2018-09-04T23:06:03.468Z,24.08
2018-09-04T23:08:33.501Z,24.06
2018-09-04T23:11:03.129Z,24.05
2018-09-04T23:13:32.515Z,24.03
2018-09-04T23:16:02.140Z,24.01
2018-09-04T23:18:31.963Z,24.01
2018-09-04T23:21:00.993Z,23.99
2018-09-04T23:23:31.042Z,23.97
2018-09-04T23:26:00.296Z,23.95
2018-09-04T23:28:30.130Z,23.95
2018-09-04T23:31:00.164Z,23.94
2018-09-04T23:33:32.666Z,23.91
2018-09-04T23:36:02.773Z,23.88
2018-09-04T23:38:32.526Z,23.85
2018-09-04T23:41:02.268Z,23.81
2018-09-04T23:43:31.948Z,23.79
2018-09-04T23:46:01.692Z,23.78
2018-09-04T23:48:30.946Z,23.75
2018-09-04T23:51:01.091Z,23.70
2018-09-04T23:53:30.932Z,23.67
2018-09-04T23:56:04.373Z,23.64
2018-09-04T23:58:34.213Z,23.60
